KMWA/MWA METAR and TAF weather

Enter ICAO airport designator
Station Type Date Time Source
KMWA METAR 2022/05/26 03:55 UTC NOAA

KMWA 260355Z AUTO 17012G22KT 10SM OVC022 21/19 A2983 RMK AO2 T02110189


Station Type Date Time Source
KMWA Decoded METAR 2022/05/26 03:55 UTC NOAA

Marion, Williamson County Regional Airport, IL, United States (KMWA) 37-45-01N 089-00-04W
May 25, 2022 - 11:55 PM EDT / 2022.05.26 0355 UTC
Wind: from the S (170 degrees) at 14 MPH (12 KT) gusting to 25 MPH (22 KT):0
Visibility: 10 mile(s):0
Sky conditions: overcast
Temperature: 70.0 F (21.1 C)
Dew Point: 66.0 F (18.9 C)
Relative Humidity: 87%
Pressure (altimeter): 29.83 in. Hg (1010 hPa)
ob: KMWA 260355Z AUTO 17012G22KT 10SM OVC022 21/19 A2983 RMK AO2 T02110189
cycle: 4

Station Type Date Time Source
KMWA TAF UTC NOAA

Error!

Example: see airport list